sensor_id;sensor_type;location;lat;lon;timestamp;pressure;altitude;pressure_sealevel;temperature;humidity
11001;BME280;5553;48.506;8.870;2023-02-05T00:00:28;98484.41;;;0.16;100.00
11001;BME280;5553;48.506;8.870;2023-02-05T00:02:56;98472.34;;;0.15;100.00
11001;BME280;5553;48.506;8.870;2023-02-05T00:05:24;98475.88;;;0.14;100.00
11001;BME280;5553;48.506;8.870;2023-02-05T00:07:55;98478.38;;;0.15;100.00
11001;BME280;5553;48.506;8.870;2023-02-05T00:10:23;98476.44;;;0.19;100.00
11001;BME280;5553;48.506;8.870;2023-02-05T00:12:51;98478.13;;;0.20;100.00
11001;BME280;5553;48.506;8.870;2023-02-05T00:15:20;98486.00;;;0.18;100.00
11001;BME280;5553;48.506;8.870;2023-02-05T00:17:48;98485.22;;;0.16;100.00
11001;BME280;5553;48.506;8.870;2023-02-05T00:20:16;98478.13;;;0.20;100.00
11001;BME280;5553;48.506;8.870;2023-02-05T00:22:45;98481.50;;;0.22;100.00
11001;BME280;5553;48.506;8.870;2023-02-05T00:25:16;98484.88;;;0.24;100.00
11001;BME280;5553;48.506;8.870;2023-02-05T00:27:44;98492.41;;;0.29;100.00
11001;BME280;5553;48.506;8.870;2023-02-05T00:30:12;98480.25;;;0.29;100.00
11001;BME280;5553;48.506;8.870;2023-02-05T00:32:40;98475.53;;;0.20;100.00
11001;BME280;5553;48.506;8.870;2023-02-05T00:35:09;98472.94;;;0.20;100.00
11001;BME280;5553;48.506;8.870;2023-02-05T00:37:37;98459.13;;;0.19;100.00
11001;BME280;5553;48.506;8.870;2023-02-05T00:40:06;98472.38;;;0.31;100.00
11001;BME280;5553;48.506;8.870;2023-02-05T00:42:37;98474.06;;;0.32;100.00
11001;BME280;5553;48.506;8.870;2023-02-05T00:45:06;98471.38;;;0.33;100.00
11001;BME280;5553;48.506;8.870;2023-02-05T00:47:35;98467.31;;;0.12;100.00
11001;BME280;5553;48.506;8.870;2023-02-05T00:50:04;98468.38;;;0.08;100.00
11001;BME280;5553;48.506;8.870;2023-02-05T00:52:32;98465.47;;;-0.04;100.00
11001;BME280;5553;48.506;8.870;2023-02-05T00:55:00;98479.38;;;-0.05;100.00
11001;BME280;5553;48.506;8.870;2023-02-05T00:57:29;98476.03;;;-0.07;100.00
11001;BME280;5553;48.506;8.870;2023-02-05T00:59:59;98475.34;;;-0.10;100.00
11001;BME280;5553;48.506;8.870;2023-02-05T01:02:28;98478.00;;;-0.12;100.00
11001;BME280;5553;48.506;8.870;2023-02-05T01:04:56;98478.16;;;-0.15;100.00
11001;BME280;5553;48.506;8.870;2023-02-05T01:07:24;98477.41;;;-0.17;100.00
11001;BME280;5553;48.506;8.870;2023-02-05T01:09:53;98483.88;;;-0.08;100.00
11001;BME280;5553;48.506;8.870;2023-02-05T01:12:21;98477.19;;;-0.12;100.00
11001;BME280;5553;48.506;8.870;2023-02-05T01:14:49;98469.47;;;-0.14;100.00
11001;BME280;5553;48.506;8.870;2023-02-05T01:17:21;98481.00;;;-0.19;100.00
11001;BME280;5553;48.506;8.870;2023-02-05T01:19:49;98487.03;;;-0.19;100.00
11001;BME280;5553;48.506;8.870;2023-02-05T01:22:17;98472.59;;;-0.25;100.00
11001;BME280;5553;48.506;8.870;2023-02-05T01:24:45;98475.28;;;-0.26;100.00
11001;BME280;5553;48.506;8.870;2023-02-05T01:27:14;98482.44;;;-0.31;100.00
11001;BME280;5553;48.506;8.870;2023-02-05T01:29:42;98484.97;;;-0.30;100.00
11001;BME280;5553;48.506;8.870;2023-02-05T01:32:10;98477.38;;;-0.34;100.00
11001;BME280;5553;48.506;8.870;2023-02-05T01:34:41;98474.06;;;-0.36;100.00
11001;BME280;5553;48.506;8.870;2023-02-05T01:37:09;98470.09;;;-0.26;100.00
11001;BME280;5553;48.506;8.870;2023-02-05T01:39:38;98463.22;;;-0.27;100.00
11001;BME280;5553;48.506;8.870;2023-02-05T01:42:14;98468.19;;;-0.40;100.00
11001;BME280;5553;48.506;8.870;2023-02-05T01:44:44;98468.09;;;-0.38;100.00
11001;BME280;5553;48.506;8.870;2023-02-05T01:47:32;98471.47;;;-0.36;100.00
11001;BME280;5553;48.506;8.870;2023-02-05T01:50:03;98468.09;;;-0.38;100.00
11001;BME280;5553;48.506;8.870;2023-02-05T01:52:31;98459.72;;;-0.26;100.00
11001;BME280;5553;48.506;8.870;2023-02-05T01:54:59;98458.19;;;-0.30;100.00
11001;BME280;5553;48.506;8.870;2023-02-05T01:57:28;98454.81;;;-0.32;100.00
11001;BME280;5553;48.506;8.870;2023-02-05T01:59:56;98445.28;;;-0.32;100.00
11001;BME280;5553;48.506;8.870;2023-02-05T02:02:25;98443.06;;;-0.22;100.00
11001;BME280;5553;48.506;8.870;2023-02-05T02:04:57;98435.44;;;-0.25;100.00
11001;BME280;5553;48.506;8.870;2023-02-05T02:07:30;98441.78;;;-0.31;100.00
11001;BME280;5553;48.506;8.870;2023-02-05T02:09:58;98431.03;;;-0.40;100.00
11001;BME280;5553;48.506;8.870;2023-02-05T02:12:29;98432.09;;;-0.44;100.00
11001;BME280;5553;48.506;8.870;2023-02-05T02:15:01;98428.50;;;-0.42;100.00
11001;BME280;5553;48.506;8.870;2023-02-05T02:17:31;98431.19;;;-0.43;100.00
11001;BME280;5553;48.506;8.870;2023-02-05T02:20:06;98438.47;;;-0.52;100.00
11001;BME280;5553;48.506;8.870;2023-02-05T02:22:48;98431.19;;;-0.61;100.00
11001;BME280;5553;48.506;8.870;2023-02-05T02:25:37;98419.03;;;-0.60;100.00
11001;BME280;5553;48.506;8.870;2023-02-05T02:28:16;98425.34;;;-0.66;100.00
11001;BME280;5553;48.506;8.870;2023-02-05T02:30:52;98431.19;;;-0.61;100.00
11001;BME280;5553;48.506;8.870;2023-02-05T02:33:27;98431.09;;;-0.59;100.00
11001;BME280;5553;48.506;8.870;2023-02-05T02:36:01;98431.88;;;-0.57;100.00
11001;BME280;5553;48.506;8.870;2023-02-05T02:38:38;98440.38;;;-0.38;100.00
11001;BME280;5553;48.506;8.870;2023-02-05T02:41:11;98435.88;;;-0.34;100.00
11001;BME280;5553;48.506;8.870;2023-02-05T02:43:48;98430.53;;;-0.31;100.00
11001;BME280;5553;48.506;8.870;2023-02-05T02:46:20;98424.53;;;-0.32;100.00
11001;BME280;5553;48.506;8.870;2023-02-05T02:48:51;98422.31;;;-0.39;100.00
11001;BME280;5553;48.506;8.870;2023-02-05T02:51:22;98417.44;;;-0.45;100.00
11001;BME280;5553;48.506;8.870;2023-02-05T02:53:55;98421.72;;;-0.27;100.00
11001;BME280;5553;48.506;8.870;2023-02-05T02:56:27;98423.69;;;-0.32;100.00
11001;BME280;5553;48.506;8.870;2023-02-05T02:59:02;98429.56;;;-0.29;100.00
11001;BME280;5553;48.506;8.870;2023-02-05T03:01:35;98417.28;;;-0.25;100.00
11001;BME280;5553;48.506;8.870;2023-02-05T03:04:10;98404.53;;;-0.30;100.00
11001;BME280;5553;48.506;8.870;2023-02-05T03:06:40;98400.19;;;-0.29;100.00
11001;BME280;5553;48.506;8.870;2023-02-05T03:09:15;98407.59;;;-0.39;100.00
11001;BME280;5553;48.506;8.870;2023-02-05T03:11:46;98403.88;;;-0.33;100.00
11001;BME280;5553;48.506;8.870;2023-02-05T03:14:17;98395.69;;;-0.43;100.00
11001;BME280;5553;48.506;8.870;2023-02-05T03:16:45;98391.59;;;-0.47;100.00
11001;BME280;5553;48.506;8.870;2023-02-05T03:19:14;98393.94;;;-0.42;100.00
11001;BME280;5553;48.506;8.870;2023-02-05T03:21:45;98405.09;;;-0.58;100.00
11001;BME280;5553;48.506;8.870;2023-02-05T03:24:15;98406.38;;;-0.49;100.00
11001;BME280;5553;48.506;8.870;2023-02-05T03:26:44;98403.25;;;-0.38;100.00
11001;BME280;5553;48.506;8.870;2023-02-05T03:29:13;98407.13;;;-0.30;100.00
11001;BME280;5553;48.506;8.870;2023-02-05T03:31:55;98398.97;;;-0.39;100.00
11001;BME280;5553;48.506;8.870;2023-02-05T03:34:37;98397.91;;;-0.35;100.00
11001;BME280;5553;48.506;8.870;2023-02-05T03:37:12;98396.97;;;-0.34;100.00
11001;BME280;5553;48.506;8.870;2023-02-05T03:39:52;98395.47;;;-0.38;100.00
11001;BME280;5553;48.506;8.870;2023-02-05T03:42:33;98397.44;;;-0.26;100.00
11001;BME280;5553;48.506;8.870;2023-02-05T03:45:18;98389.13;;;-0.33;100.00
11001;BME280;5553;48.506;8.870;2023-02-05T03:48:01;98386.94;;;-0.40;100.00
11001;BME280;5553;48.506;8.870;2023-02-05T03:50:36;98386.78;;;-0.37;100.00
11001;BME280;5553;48.506;8.870;2023-02-05T03:53:13;98377.00;;;-0.50;100.00
11001;BME280;5553;48.506;8.870;2023-02-05T03:55:49;98383.56;;;-0.42;100.00
11001;BME280;5553;48.506;8.870;2023-02-05T03:58:22;98380.13;;;-0.43;100.00
11001;BME280;5553;48.506;8.870;2023-02-05T04:00:52;98379.31;;;-0.43;100.00
11001;BME280;5553;48.506;8.870;2023-02-05T04:03:23;98391.06;;;-0.54;100.00
11001;BME280;5553;48.506;8.870;2023-02-05T04:05:52;98388.16;;;-0.47;100.00
11001;BME280;5553;48.506;8.870;2023-02-05T04:08:20;98376.94;;;-0.48;100.00
11001;BME280;5553;48.506;8.870;2023-02-05T04:10:48;98366.94;;;-0.38;100.00
11001;BME280;5553;48.506;8.870;2023-02-05T04:13:17;98360.53;;;-0.49;100.00
11001;BME280;5553;48.506;8.870;2023-02-05T04:15:47;98357.50;;;-0.57;100.00
11001;BME280;5553;48.506;8.870;2023-02-05T04:18:15;98364.06;;;-0.67;100.00
11001;BME280;5553;48.506;8.870;2023-02-05T04:20:46;98358.44;;;-0.75;100.00
11001;BME280;5553;48.506;8.870;2023-02-05T04:23:14;98355.50;;;-0.69;100.00
11001;BME280;5553;48.506;8.870;2023-02-05T04:25:42;98360.09;;;-0.74;100.00
11001;BME280;5553;48.506;8.870;2023-02-05T04:28:11;98362.91;;;-0.79;100.00
11001;BME280;5553;48.506;8.870;2023-02-05T04:30:39;98370.75;;;-0.80;100.00
11001;BME280;5553;48.506;8.870;2023-02-05T04:33:07;98362.22;;;-0.82;100.00
11001;BME280;5553;48.506;8.870;2023-02-05T04:35:36;98359.31;;;-0.93;100.00
11001;BME280;5553;48.506;8.870;2023-02-05T04:38:06;98356.81;;;-0.95;100.00
11001;BME280;5553;48.506;8.870;2023-02-05T04:40:35;98355.06;;;-0.94;100.00
11001;BME280;5553;48.506;8.870;2023-02-05T04:43:03;98350.16;;;-1.01;100.00
11001;BME280;5553;48.506;8.870;2023-02-05T04:45:31;98351.97;;;-1.03;100.00
11001;BME280;5553;48.506;8.870;2023-02-05T04:47:59;98354.13;;;-0.93;100.00
11001;BME280;5553;48.506;8.870;2023-02-05T04:50:28;98349.38;;;-1.03;100.00
11001;BME280;5553;48.506;8.870;2023-02-05T04:52:56;98355.34;;;-1.01;100.00
11001;BME280;5553;48.506;8.870;2023-02-05T04:55:29;98358.09;;;-1.04;100.00
11001;BME280;5553;48.506;8.870;2023-02-05T04:57:57;98363.66;;;-0.94;100.00
11001;BME280;5553;48.506;8.870;2023-02-05T05:00:26;98362.97;;;-1.15;100.00
11001;BME280;5553;48.506;8.870;2023-02-05T05:02:54;98373.69;;;-1.23;100.00
11001;BME280;5553;48.506;8.870;2023-02-05T05:05:23;98364.81;;;-1.36;100.00
11001;BME280;5553;48.506;8.870;2023-02-05T05:07:51;98355.72;;;-1.45;100.00
11001;BME280;5553;48.506;8.870;2023-02-05T05:10:19;98353.41;;;-1.51;100.00
11001;BME280;5553;48.506;8.870;2023-02-05T05:12:50;98361.31;;;-1.35;100.00
11001;BME280;5553;48.506;8.870;2023-02-05T05:15:19;98372.47;;;-1.15;100.00
11001;BME280;5553;48.506;8.870;2023-02-05T05:17:47;98354.00;;;-1.27;100.00
11001;BME280;5553;48.506;8.870;2023-02-05T05:20:16;98360.38;;;-1.15;100.00
11001;BME280;5553;48.506;8.870;2023-02-05T05:22:44;98361.50;;;-1.21;100.00
11001;BME280;5553;48.506;8.870;2023-02-05T05:25:12;98374.94;;;-1.31;100.00
11001;BME280;5553;48.506;8.870;2023-02-05T05:27:41;98371.75;;;-1.36;100.00
11001;BME280;5553;48.506;8.870;2023-02-05T05:30:12;98383.00;;;-1.18;100.00
11001;BME280;5553;48.506;8.870;2023-02-05T05:32:41;98386.84;;;-1.27;100.00
11001;BME280;5553;48.506;8.870;2023-02-05T05:35:09;98397.91;;;-1.24;100.00
11001;BME280;5553;48.506;8.870;2023-02-05T05:37:37;98402.09;;;-1.21;100.00
11001;BME280;5553;48.506;8.870;2023-02-05T05:40:06;98395.88;;;-1.00;100.00
11001;BME280;5553;48.506;8.870;2023-02-05T05:42:47;98393.09;;;-0.95;100.00
11001;BME280;5553;48.506;8.870;2023-02-05T05:45:30;98418.88;;;-0.92;100.00
11001;BME280;5553;48.506;8.870;2023-02-05T05:47:59;98411.28;;;-0.97;100.00
11001;BME280;5553;48.506;8.870;2023-02-05T05:50:27;98400.25;;;-0.83;100.00
11001;BME280;5553;48.506;8.870;2023-02-05T05:52:55;98396.53;;;-0.77;100.00
11001;BME280;5553;48.506;8.870;2023-02-05T05:55:23;98397.22;;;-0.74;100.00
11001;BME280;5553;48.506;8.870;2023-02-05T05:57:52;98388.13;;;-0.82;100.00
11001;BME280;5553;48.506;8.870;2023-02-05T06:00:20;98394.47;;;-0.88;100.00
11001;BME280;5553;48.506;8.870;2023-02-05T06:02:51;98382.13;;;-0.83;100.00
11001;BME280;5553;48.506;8.870;2023-02-05T06:05:19;98378.69;;;-0.83;100.00
11001;BME280;5553;48.506;8.870;2023-02-05T06:07:47;98362.53;;;-0.88;100.00
11001;BME280;5553;48.506;8.870;2023-02-05T06:10:16;98352.84;;;-0.85;100.00
11001;BME280;5553;48.506;8.870;2023-02-05T06:12:44;98355.34;;;-0.83;100.00
11001;BME280;5553;48.506;8.870;2023-02-05T06:15:12;98360.69;;;-0.69;100.00
11001;BME280;5553;48.506;8.870;2023-02-05T06:17:41;98383.72;;;-0.63;100.00
11001;BME280;5553;48.506;8.870;2023-02-05T06:20:12;98390.38;;;-0.75;100.00
11001;BME280;5553;48.506;8.870;2023-02-05T06:22:41;98386.56;;;-0.67;100.00
11001;BME280;5553;48.506;8.870;2023-02-05T06:25:09;98398.75;;;-0.69;100.00
11001;BME280;5553;48.506;8.870;2023-02-05T06:27:37;98397.63;;;-0.64;100.00
11001;BME280;5553;48.506;8.870;2023-02-05T06:30:06;98400.66;;;-0.56;100.00
11001;BME280;5553;48.506;8.870;2023-02-05T06:32:35;98390.28;;;-0.56;100.00
11001;BME280;5553;48.506;8.870;2023-02-05T06:35:04;98391.97;;;-0.55;100.00
11001;BME280;5553;48.506;8.870;2023-02-05T06:37:35;98395.72;;;-0.60;100.00
11001;BME280;5553;48.506;8.870;2023-02-05T06:40:03;98379.16;;;-0.58;100.00
11001;BME280;5553;48.506;8.870;2023-02-05T11:16:11;98150.47;;;1.74;100.00
11001;BME280;5553;48.506;8.870;2023-02-05T11:18:43;98153.19;;;1.72;100.00
11001;BME280;5553;48.506;8.870;2023-02-05T11:21:12;98146.84;;;1.76;100.00
11001;BME280;5553;48.506;8.870;2023-02-05T11:23:53;98149.06;;;1.82;100.00
11001;BME280;5553;48.506;8.870;2023-02-05T11:26:23;98144.81;;;1.81;100.00
11001;BME280;5553;48.506;8.870;2023-02-05T11:28:52;98137.72;;;1.83;100.00
11001;BME280;5553;48.506;8.870;2023-02-05T11:31:26;98133.25;;;1.85;100.00
11001;BME280;5553;48.506;8.870;2023-02-05T11:34:10;98133.06;;;1.88;100.00
11001;BME280;5553;48.506;8.870;2023-02-05T11:36:47;98135.69;;;1.88;100.00
11001;BME280;5553;48.506;8.870;2023-02-05T11:39:27;98126.09;;;1.89;100.00
11001;BME280;5553;48.506;8.870;2023-02-05T11:42:07;98123.28;;;1.92;100.00
11001;BME280;5553;48.506;8.870;2023-02-05T11:44:45;98130.06;;;1.95;100.00
11001;BME280;5553;48.506;8.870;2023-02-05T11:47:24;98107.69;;;1.92;100.00
11001;BME280;5553;48.506;8.870;2023-02-05T11:49:54;98114.84;;;1.88;100.00
11001;BME280;5553;48.506;8.870;2023-02-05T11:52:25;98101.09;;;1.86;100.00
11001;BME280;5553;48.506;8.870;2023-02-05T11:54:55;98107.56;;;1.94;100.00
11001;BME280;5553;48.506;8.870;2023-02-05T11:57:31;98104.97;;;1.94;100.00
11001;BME280;5553;48.506;8.870;2023-02-05T12:00:13;98101.97;;;2.00;100.00
11001;BME280;5553;48.506;8.870;2023-02-05T12:02:47;98097.53;;;1.87;100.00
11001;BME280;5553;48.506;8.870;2023-02-05T12:05:20;98090.28;;;1.93;100.00
11001;BME280;5553;48.506;8.870;2023-02-05T12:07:55;98089.53;;;1.90;100.00
11001;BME280;5553;48.506;8.870;2023-02-05T12:10:32;98093.16;;;1.88;100.00
11001;BME280;5553;48.506;8.870;2023-02-05T12:13:13;98087.69;;;1.93;100.00
11001;BME280;5553;48.506;8.870;2023-02-05T12:15:53;98091.00;;;1.95;100.00
11001;BME280;5553;48.506;8.870;2023-02-05T12:18:34;98083.00;;;1.98;100.00
11001;BME280;5553;48.506;8.870;2023-02-05T12:21:12;98079.69;;;1.96;100.00
11001;BME280;5553;48.506;8.870;2023-02-05T12:23:58;98074.28;;;1.99;100.00
11001;BME280;5553;48.506;8.870;2023-02-05T12:26:33;98069.50;;;2.05;100.00
11001;BME280;5553;48.506;8.870;2023-02-05T12:29:13;98075.94;;;2.00;100.00
11001;BME280;5553;48.506;8.870;2023-02-05T12:32:03;98070.53;;;2.03;100.00
11001;BME280;5553;48.506;8.870;2023-02-05T12:34:42;98066.59;;;2.10;100.00
11001;BME280;5553;48.506;8.870;2023-02-05T12:37:27;98062.41;;;2.07;100.00
11001;BME280;5553;48.506;8.870;2023-02-05T12:40:06;98061.06;;;2.02;100.00
11001;BME280;5553;48.506;8.870;2023-02-05T12:42:41;98062.53;;;2.06;100.00
11001;BME280;5553;48.506;8.870;2023-02-05T12:45:32;98060.13;;;2.03;100.00
11001;BME280;5553;48.506;8.870;2023-02-05T12:48:17;98063.25;;;2.08;100.00
11001;BME280;5553;48.506;8.870;2023-02-05T12:51:08;98061.56;;;2.07;100.00
11001;BME280;5553;48.506;8.870;2023-02-05T12:54:12;98058.56;;;2.13;100.00
11001;BME280;5553;48.506;8.870;2023-02-05T12:56:54;98051.72;;;2.12;100.00
11001;BME280;5553;48.506;8.870;2023-02-05T12:59:36;98053.03;;;2.05;100.00
11001;BME280;5553;48.506;8.870;2023-02-05T13:02:14;98052.81;;;2.08;100.00
11001;BME280;5553;48.506;8.870;2023-02-05T13:04:48;98049.50;;;2.06;100.00
11001;BME280;5553;48.506;8.870;2023-02-05T13:07:26;98045.75;;;2.10;100.00
11001;BME280;5553;48.506;8.870;2023-02-05T13:09:59;98041.28;;;2.12;100.00
11001;BME280;5553;48.506;8.870;2023-02-05T13:12:33;98043.91;;;2.12;100.00
11001;BME280;5553;48.506;8.870;2023-02-05T13:15:09;98041.06;;;2.15;100.00
11001;BME280;5553;48.506;8.870;2023-02-05T13:17:45;98045.88;;;2.21;100.00
11001;BME280;5553;48.506;8.870;2023-02-05T13:20:20;98039.94;;;2.19;100.00
11001;BME280;5553;48.506;8.870;2023-02-05T13:23:11;98040.88;;;2.18;100.00
11001;BME280;5553;48.506;8.870;2023-02-05T13:25:54;98036.81;;;2.14;100.00
11001;BME280;5553;48.506;8.870;2023-02-05T13:28:37;98037.00;;;2.11;100.00
11001;BME280;5553;48.506;8.870;2023-02-05T13:31:14;98036.16;;;2.10;100.00
11001;BME280;5553;48.506;8.870;2023-02-05T13:33:43;98041.28;;;2.12;100.00
11001;BME280;5553;48.506;8.870;2023-02-05T13:39:24;98041.78;;;2.04;100.00
11001;BME280;5553;48.506;8.870;2023-02-05T13:42:10;98037.31;;;2.06;100.00
11001;BME280;5553;48.506;8.870;2023-02-05T13:45:01;98041.78;;;2.04;100.00
11001;BME280;5553;48.506;8.870;2023-02-05T13:47:56;98033.13;;;2.04;100.00
11001;BME280;5553;48.506;8.870;2023-02-05T13:50:40;98036.50;;;2.06;100.00
11001;BME280;5553;48.506;8.870;2023-02-05T13:53:28;98040.00;;;2.05;100.00
11001;BME280;5553;48.506;8.870;2023-02-05T13:56:18;98037.19;;;2.08;100.00
11001;BME280;5553;48.506;8.870;2023-02-05T13:58:51;98041.50;;;2.09;100.00
11001;BME280;5553;48.506;8.870;2023-02-05T14:01:23;98048.56;;;2.07;100.00
11001;BME280;5553;48.506;8.870;2023-02-05T14:03:56;98051.72;;;2.12;100.00
11001;BME280;5553;48.506;8.870;2023-02-05T14:06:30;98038.88;;;2.09;100.00
11001;BME280;5553;48.506;8.870;2023-02-05T14:09:02;98048.38;;;2.10;100.00
11001;BME280;5553;48.506;8.870;2023-02-05T14:11:51;98045.00;;;2.08;100.00
11001;BME280;5553;48.506;8.870;2023-02-05T14:14:29;98045.13;;;2.06;100.00
11001;BME280;5553;48.506;8.870;2023-02-05T14:17:00;98045.13;;;2.06;100.00
11001;BME280;5553;48.506;8.870;2023-02-05T14:19:50;98043.03;;;2.11;100.00
11001;BME280;5553;48.506;8.870;2023-02-05T14:22:38;98049.09;;;2.12;100.00
11001;BME280;5553;48.506;8.870;2023-02-05T14:28:32;98048.88;;;2.15;100.00
11001;BME280;5553;48.506;8.870;2023-02-05T14:31:01;98049.81;;;2.14;100.00
11001;BME280;5553;48.506;8.870;2023-02-05T14:33:36;98047.22;;;2.14;100.00
11001;BME280;5553;48.506;8.870;2023-02-05T14:36:26;98050.84;;;2.11;100.00
11001;BME280;5553;48.506;8.870;2023-02-05T14:39:00;98058.56;;;2.13;100.00
11001;BME280;5553;48.506;8.870;2023-02-05T14:41:30;98062.25;;;2.23;100.00
11001;BME280;5553;48.506;8.870;2023-02-05T14:44:05;98053.16;;;2.16;100.00
11001;BME280;5553;48.506;8.870;2023-02-05T14:46:36;98060.56;;;2.22;100.00
11001;BME280;5553;48.506;8.870;2023-02-05T14:49:23;98061.19;;;2.13;100.00
11001;BME280;5553;48.506;8.870;2023-02-05T14:51:55;98059.53;;;2.12;100.00
11001;BME280;5553;48.506;8.870;2023-02-05T14:54:28;98055.31;;;1.97;100.00
11001;BME280;5553;48.506;8.870;2023-02-05T14:57:09;98060.13;;;2.03;100.00
11001;BME280;5553;48.506;8.870;2023-02-05T14:59:49;98061.66;;;1.93;100.00
11001;BME280;5553;48.506;8.870;2023-02-05T15:02:45;98064.22;;;1.80;100.00
11001;BME280;5553;48.506;8.870;2023-02-05T15:05:17;98070.69;;;1.87;100.00
11001;BME280;5553;48.506;8.870;2023-02-05T15:07:47;98072.66;;;1.83;100.00
11001;BME280;5553;48.506;8.870;2023-02-05T15:10:20;98063.00;;;1.85;100.00
11001;BME280;5553;48.506;8.870;2023-02-05T15:13:00;98064.53;;;1.88;100.00
11001;BME280;5553;48.506;8.870;2023-02-05T15:15:33;98067.81;;;1.92;100.00
11001;BME280;5553;48.506;8.870;2023-02-05T15:18:05;98064.56;;;2.01;100.00
11001;BME280;5553;48.506;8.870;2023-02-05T15:20:37;98061.72;;;1.91;100.00
11001;BME280;5553;48.506;8.870;2023-02-05T15:23:16;98063.63;;;1.89;100.00
11001;BME280;5553;48.506;8.870;2023-02-05T15:25:52;98078.25;;;1.77;100.00
11001;BME280;5553;48.506;8.870;2023-02-05T15:28:28;98080.84;;;1.77;100.00
11001;BME280;5553;48.506;8.870;2023-02-05T15:31:08;98076.91;;;1.84;100.00
11001;BME280;5553;48.506;8.870;2023-02-05T15:33:45;98072.16;;;1.91;100.00
11001;BME280;5553;48.506;8.870;2023-02-05T15:36:20;98084.06;;;1.95;100.00
11001;BME280;5553;48.506;8.870;2023-02-05T15:39:04;98078.25;;;1.77;100.00
11001;BME280;5553;48.506;8.870;2023-02-05T15:41:34;98072.31;;;1.75;100.00
11001;BME280;5553;48.506;8.870;2023-02-05T15:44:04;98071.50;;;1.75;100.00
11001;BME280;5553;48.506;8.870;2023-02-05T15:46:35;98080.16;;;1.88;100.00
11001;BME280;5553;48.506;8.870;2023-02-05T15:49:04;98082.94;;;1.72;100.00
11001;BME280;5553;48.506;8.870;2023-02-05T15:51:34;98078.44;;;1.74;100.00
11001;BME280;5553;48.506;8.870;2023-02-05T15:54:05;98071.69;;;1.72;100.00
11001;BME280;5553;48.506;8.870;2023-02-05T15:56:35;98069.31;;;1.54;100.00
11001;BME280;5553;48.506;8.870;2023-02-05T15:59:12;98068.69;;;1.51;100.00
11001;BME280;5553;48.506;8.870;2023-02-05T16:01:46;98074.41;;;1.56;100.00
11001;BME280;5553;48.506;8.870;2023-02-05T16:04:16;98076.38;;;1.52;100.00
11001;BME280;5553;48.506;8.870;2023-02-05T16:06:45;98089.50;;;1.51;100.00
11001;BME280;5553;48.506;8.870;2023-02-05T16:09:18;98078.53;;;1.46;100.00
11001;BME280;5553;48.506;8.870;2023-02-05T16:11:47;98081.59;;;1.52;100.00
11001;BME280;5553;48.506;8.870;2023-02-05T16:14:17;98084.06;;;1.54;100.00
11001;BME280;5553;48.506;8.870;2023-02-05T16:16:56;98097.38;;;1.49;100.00
11001;BME280;5553;48.506;8.870;2023-02-05T16:19:28;98096.56;;;1.49;100.00
11001;BME280;5553;48.506;8.870;2023-02-05T16:22:01;98106.38;;;1.58;100.00
11001;BME280;5553;48.506;8.870;2023-02-05T16:24:33;98111.19;;;1.64;100.00
11001;BME280;5553;48.506;8.870;2023-02-05T16:27:09;98113.06;;;1.62;100.00
11001;BME280;5553;48.506;8.870;2023-02-05T16:29:43;98118.34;;;1.60;100.00
11001;BME280;5553;48.506;8.870;2023-02-05T16:32:20;98117.44;;;1.61;100.00
11001;BME280;5553;48.506;8.870;2023-02-05T16:34:52;98125.50;;;1.57;100.00
11001;BME280;5553;48.506;8.870;2023-02-05T16:37:24;98132.13;;;1.48;100.00
11001;BME280;5553;48.506;8.870;2023-02-05T16:39:56;98142.16;;;1.54;100.00
11001;BME280;5553;48.506;8.870;2023-02-05T16:42:30;98146.06;;;1.61;100.00
11001;BME280;5553;48.506;8.870;2023-02-05T16:45:13;98140.28;;;1.56;100.00
11001;BME280;5553;48.506;8.870;2023-02-05T16:48:14;98149.41;;;1.49;100.00
11001;BME280;5553;48.506;8.870;2023-02-05T16:50:48;98157.09;;;1.65;100.00
11001;BME280;5553;48.506;8.870;2023-02-05T16:53:20;98164.72;;;1.68;100.00
11001;BME280;5553;48.506;8.870;2023-02-05T16:55:50;98163.63;;;1.58;100.00
11001;BME280;5553;48.506;8.870;2023-02-05T16:58:25;98172.34;;;1.57;100.00
11001;BME280;5553;48.506;8.870;2023-02-05T17:00:56;98165.66;;;1.53;100.00
11001;BME280;5553;48.506;8.870;2023-02-05T17:03:35;98177.38;;;1.46;100.00
11001;BME280;5553;48.506;8.870;2023-02-05T17:06:10;98179.69;;;1.50;100.00
11001;BME280;5553;48.506;8.870;2023-02-05T17:08:40;98185.47;;;1.55;100.00
11001;BME280;5553;48.506;8.870;2023-02-05T17:11:30;98194.84;;;1.43;100.00
11001;BME280;5553;48.506;8.870;2023-02-05T17:16:41;98205.06;;;1.61;100.00
11001;BME280;5553;48.506;8.870;2023-02-05T17:19:24;98197.53;;;1.56;100.00
11001;BME280;5553;48.506;8.870;2023-02-05T17:22:17;98200.25;;;1.55;100.00
11001;BME280;5553;48.506;8.870;2023-02-05T17:24:47;98207.75;;;1.45;100.00
11001;BME280;5553;48.506;8.870;2023-02-05T17:27:18;98210.72;;;1.53;100.00
11001;BME280;5553;48.506;8.870;2023-02-05T17:29:51;98208.53;;;1.47;100.00
11001;BME280;5553;48.506;8.870;2023-02-05T17:32:20;98211.66;;;1.52;100.00
11001;BME280;5553;48.506;8.870;2023-02-05T17:34:51;98216.03;;;1.52;100.00
11001;BME280;5553;48.506;8.870;2023-02-05T17:37:19;98222.63;;;1.43;100.00
11001;BME280;5553;48.506;8.870;2023-02-05T17:39:48;98220.59;;;1.48;100.00
11001;BME280;5553;48.506;8.870;2023-02-05T17:42:19;98221.13;;;1.53;100.00
11001;BME280;5553;48.506;8.870;2023-02-05T17:44:48;98230.06;;;1.49;100.00
11001;BME280;5553;48.506;8.870;2023-02-05T17:47:17;98224.38;;;1.57;100.00
11001;BME280;5553;48.506;8.870;2023-02-05T17:49:45;98227.75;;;1.45;100.00
11001;BME280;5553;48.506;8.870;2023-02-05T17:52:16;98230.22;;;1.32;100.00
11001;BME280;5553;48.506;8.870;2023-02-05T17:54:45;98237.03;;;1.49;100.00
11001;BME280;5553;48.506;8.870;2023-02-05T17:57:14;98242.41;;;1.46;100.00
11001;BME280;5553;48.506;8.870;2023-02-05T17:59:44;98237.03;;;1.49;100.00
11001;BME280;5553;48.506;8.870;2023-02-05T18:02:13;98240.94;;;1.56;100.00
11001;BME280;5553;48.506;8.870;2023-02-05T18:04:42;98236.66;;;1.55;100.00
11001;BME280;5553;48.506;8.870;2023-02-05T18:07:20;98245.19;;;1.57;100.00
11001;BME280;5553;48.506;8.870;2023-02-05T18:09:52;98239.81;;;1.60;100.00
11001;BME280;5553;48.506;8.870;2023-02-05T18:12:20;98243.16;;;1.48;100.00
11001;BME280;5553;48.506;8.870;2023-02-05T18:14:49;98248.19;;;1.51;100.00
11001;BME280;5553;48.506;8.870;2023-02-05T18:17:17;98254.69;;;1.58;100.00
11001;BME280;5553;48.506;8.870;2023-02-05T18:19:46;98262.03;;;1.51;100.00
11001;BME280;5553;48.506;8.870;2023-02-05T18:22:14;98256.81;;;1.37;100.00